Time;durP1;ratioP1;P1;durP2;ratioP2;P2;SDS_P1;SDS_P2;PMS_P1;PMS_P2;Temp;Humidity;BMP_temperature;BMP_pressure;BME280_temperature;BME280_humidity;BME280_pressure;Samples;Min_cycle;Max_cycle;Signal;HPM_P1;HPM_P2
2023/03/31 00:00:13;;;;;;;;;14.00;13.00;21.00;31.10;;;;;;111297;1243;55734;-60
2023/03/31 00:03:01;;;;;;;;;13.25;12.25;21.00;31.40;;;;;;111519;1238;55847;-61
2023/03/31 00:05:28;;;;;;;;;15.75;11.75;21.00;30.70;;;;;;111235;1241;49685;-62
2023/03/31 00:08:00;;;;;;;;;14.75;13.50;21.00;31.10;;;;;;111342;1238;49081;-60
2023/03/31 00:10:32;;;;;;;;;14.75;13.75;21.00;31.30;;;;;;111451;1242;45254;-61
2023/03/31 00:13:00;;;;;;;;;19.00;14.67;21.00;31.10;;;;;;111555;1237;56162;-61
2023/03/31 00:15:27;;;;;;;;;15.67;14.67;21.00;31.10;;;;;;111497;1241;54113;-61
2023/03/31 00:17:59;;;;;;;;;20.00;16.00;21.00;31.10;;;;;;111321;1240;49176;-60
2023/03/31 00:20:26;;;;;;;;;19.75;14.50;21.00;31.00;;;;;;111442;1237;50413;-63
2023/03/31 00:22:53;;;;;;;;;18.00;14.25;21.00;31.10;;;;;;111263;1243;45489;-64
2023/03/31 00:25:20;;;;;;;;;16.75;15.25;21.00;31.10;;;;;;111222;1240;55928;-60
2023/03/31 00:27:49;;;;;;;;;17.00;16.00;21.00;31.10;;;;;;111483;1238;54267;-65
2023/03/31 00:30:16;;;;;;;;;18.75;15.00;21.00;31.10;;;;;;111487;1243;49711;-61
2023/03/31 00:32:43;;;;;;;;;17.00;14.00;20.90;31.00;;;;;;111569;1242;49959;-61
2023/03/31 00:35:10;;;;;;;;;17.75;14.50;20.90;31.20;;;;;;111521;1238;45833;-60
2023/03/31 00:37:37;;;;;;;;;17.75;14.00;20.90;31.00;;;;;;111481;1237;55078;-63
2023/03/31 00:40:08;;;;;;;;;15.75;14.25;20.90;31.00;;;;;;111493;1237;54211;-62
2023/03/31 00:42:42;;;;;;;;;14.75;12.50;20.90;31.30;;;;;;111472;1237;49371;-61
2023/03/31 00:45:12;;;;;;;;;15.00;13.00;20.90;31.10;;;;;;111403;1238;49773;-60
2023/03/31 00:48:04;;;;;;;;;12.00;11.00;20.90;31.00;;;;;;111412;1238;46230;-61
2023/03/31 00:50:35;;;;;;;;;16.50;14.00;20.90;31.20;;;;;;111477;1237;55422;-62
2023/03/31 00:53:14;;;;;;;;;14.50;13.00;20.90;31.60;;;;;;111436;1243;54462;-60
2023/03/31 00:55:50;;;;;;;;;15.25;11.00;20.90;31.00;;;;;;111449;1238;50291;-60
2023/03/31 00:58:21;;;;;;;;;15.75;14.00;20.90;31.00;;;;;;111411;1237;49049;-60
2023/03/31 01:00:51;;;;;;;;;14.00;11.00;20.90;31.00;;;;;;111401;1237;46083;-60
2023/03/31 01:03:21;;;;;;;;;18.25;14.00;20.90;31.20;;;;;;111398;1240;55520;-61
2023/03/31 01:05:55;;;;;;;;;13.75;12.00;20.90;31.00;;;;;;111565;1237;53775;-60
2023/03/31 01:08:25;;;;;;;;;15.50;12.50;20.90;31.00;;;;;;111603;1237;49507;-60
2023/03/31 01:10:54;;;;;;;;;15.00;12.00;20.90;31.00;;;;;;111414;1243;48955;-61
2023/03/31 01:13:23;;;;;;;;;16.00;13.00;20.90;31.00;;;;;;111514;1242;45349;-61
2023/03/31 01:15:50;;;;;;;;;13.75;12.50;20.90;30.50;;;;;;111411;1239;55119;-60
2023/03/31 01:18:20;;;;;;;;;13.00;12.00;20.80;31.50;;;;;;111236;1238;53272;-61
2023/03/31 01:21:13;;;;;;;;;13.75;12.75;20.80;31.00;;;;;;111222;1241;49852;-60
2023/03/31 01:23:47;;;;;;;;;16.00;14.50;20.80;31.00;;;;;;111285;1240;50448;-61
2023/03/31 01:26:41;;;;;;;;;16.75;13.75;20.80;31.00;;;;;;111438;1243;45480;-60
2023/03/31 01:29:27;;;;;;;;;14.75;10.75;20.80;30.90;;;;;;111461;1237;55219;-60
2023/03/31 01:32:36;;;;;;;;;15.00;14.00;20.80;30.90;;;;;;111420;1237;53366;-61
2023/03/31 01:35:24;;;;;;;;;19.00;13.50;20.80;31.00;;;;;;111396;1242;49409;-61
2023/03/31 01:38:23;;;;;;;;;14.00;12.75;20.80;31.00;;;;;;111361;1239;49319;-61
2023/03/31 01:41:22;;;;;;;;;20.50;14.25;20.80;31.00;;;;;;111395;1237;45733;-60
2023/03/31 01:44:31;;;;;;;;;15.00;13.25;20.80;30.90;;;;;;111367;1237;56715;-61
2023/03/31 01:47:05;;;;;;;;;15.50;13.00;20.80;30.90;;;;;;111585;1243;55106;-61
2023/03/31 01:49:41;;;;;;;;;16.75;12.50;20.80;30.90;;;;;;111479;1242;49939;-61
2023/03/31 01:52:20;;;;;;;;;14.75;12.50;20.80;30.90;;;;;;111577;1244;49810;-61
2023/03/31 01:54:49;;;;;;;;;15.00;13.00;20.80;30.90;;;;;;111343;1238;46722;-61
2023/03/31 01:57:54;;;;;;;;;16.00;12.75;20.80;30.90;;;;;;111258;1241;55382;-60
2023/03/31 02:00:32;;;;;;;;;17.50;15.50;20.80;31.00;;;;;;111158;1242;53483;-60
2023/03/31 02:03:11;;;;;;;;;13.25;11.00;20.80;31.00;;;;;;111278;1243;49884;-60
2023/03/31 02:05:48;;;;;;;;;14.50;12.75;20.80;31.00;;;;;;111520;1244;49288;-59
2023/03/31 02:08:39;;;;;;;;;14.00;11.00;20.80;30.90;;;;;;111470;1242;45455;-60
2023/03/31 02:11:06;;;;;;;;;15.25;12.00;20.80;30.90;;;;;;111280;1244;54941;-59
2023/03/31 02:13:36;;;;;;;;;13.67;12.67;20.80;30.90;;;;;;111205;1239;53733;-60
2023/03/31 02:16:07;;;;;;;;;15.25;10.75;20.80;30.90;;;;;;111429;1242;50229;-59
2023/03/31 02:18:36;;;;;;;;;12.00;11.00;20.80;30.90;;;;;;111252;1243;49384;-60
2023/03/31 02:21:06;;;;;;;;;15.67;12.00;20.80;30.90;;;;;;111295;1241;45396;-60
2023/03/31 02:23:36;;;;;;;;;13.00;12.00;20.80;30.90;;;;;;111532;1238;55430;-61
2023/03/31 02:26:11;;;;;;;;;13.33;11.00;20.80;31.20;;;;;;111298;1241;53997;-60
2023/03/31 02:28:38;;;;;;;;;13.75;12.25;20.80;30.60;;;;;;111469;1238;49327;-61
2023/03/31 02:31:13;;;;;;;;;13.00;12.00;20.80;30.90;;;;;;111409;1238;49711;-61
2023/03/31 02:33:40;;;;;;;;;13.33;11.33;20.70;30.90;;;;;;111469;1242;45542;-61
2023/03/31 02:36:07;;;;;;;;;14.75;13.50;20.70;30.90;;;;;;111463;1243;55488;-60
2023/03/31 02:38:41;;;;;;;;;14.00;12.25;20.70;30.90;;;;;;111428;1237;53987;-60
2023/03/31 02:41:08;;;;;;;;;12.25;11.00;20.70;31.00;;;;;;111422;1242;48966;-60
2023/03/31 02:43:35;;;;;;;;;14.75;13.00;20.70;31.60;;;;;;111489;1243;49907;-60
2023/03/31 02:46:02;;;;;;;;;14.50;12.00;20.70;31.00;;;;;;111374;1247;45634;-60
2023/03/31 02:48:39;;;;;;;;;12.00;11.00;20.70;31.20;;;;;;111564;1238;56099;-60
2023/03/31 02:51:09;;;;;;;;;16.25;13.00;20.70;31.20;;;;;;111406;1240;54026;-60
2023/03/31 02:53:50;;;;;;;;;13.00;12.00;20.70;31.00;;;;;;111314;1242;49786;-60
2023/03/31 02:56:26;;;;;;;;;14.33;13.00;20.70;31.10;;;;;;111352;1243;49366;-61
2023/03/31 02:58:56;;;;;;;;;12.75;11.00;20.70;33.70;;;;;;111451;1242;46370;-61
2023/03/31 03:01:36;;;;;;;;;14.67;12.67;20.70;32.60;;;;;;111105;1242;56714;-60
2023/03/31 03:04:03;;;;;;;;;16.00;14.50;20.70;32.60;;;;;;111303;1243;54275;-61
2023/03/31 03:06:39;;;;;;;;;15.33;14.33;20.70;32.60;;;;;;111223;1243;49623;-60
2023/03/31 03:09:11;;;;;;;;;14.25;12.00;20.70;32.50;;;;;;111426;1243;49527;-61
2023/03/31 03:12:04;;;;;;;;;13.00;11.00;20.70;32.50;;;;;;111132;1242;45860;-61
2023/03/31 03:15:04;;;;;;;;;15.33;14.00;20.70;32.40;;;;;;111347;1237;55426;-61
2023/03/31 03:17:41;;;;;;;;;17.75;14.00;20.70;32.30;;;;;;111070;1239;53634;-60
2023/03/31 03:20:09;;;;;;;;;16.00;13.00;20.70;32.20;;;;;;111339;1243;50458;-61
2023/03/31 03:22:37;;;;;;;;;14.00;13.00;20.70;32.10;;;;;;111115;1243;49965;-60
2023/03/31 03:25:08;;;;;;;;;16.75;13.00;20.70;32.10;;;;;;111455;1237;45829;-62
2023/03/31 03:27:36;;;;;;;;;13.00;11.25;20.70;32.60;;;;;;111370;1237;56534;-60
2023/03/31 03:30:06;;;;;;;;;18.00;14.75;20.70;32.00;;;;;;111465;1237;53285;-60
2023/03/31 03:32:33;;;;;;;;;16.00;14.00;20.70;32.00;;;;;;111251;1237;49899;-62
2023/03/31 03:35:03;;;;;;;;;14.25;13.00;20.70;32.00;;;;;;111446;1238;49701;-61
2023/03/31 03:37:30;;;;;;;;;16.00;11.00;20.70;32.00;;;;;;111449;1243;45776;-60
2023/03/31 03:39:57;;;;;;;;;14.00;12.50;20.70;32.00;;;;;;111389;1242;55297;-61
2023/03/31 03:42:24;;;;;;;;;13.75;11.00;20.70;32.50;;;;;;111191;1242;55014;-60
2023/03/31 03:44:51;;;;;;;;;14.50;13.00;20.60;31.90;;;;;;111349;1242;49244;-61
2023/03/31 03:47:18;;;;;;;;;13.25;12.00;20.60;32.00;;;;;;111372;1242;49867;-61
2023/03/31 03:49:47;;;;;;;;;18.75;15.75;20.60;31.80;;;;;;111410;1239;46470;-61
2023/03/31 03:52:15;;;;;;;;;34.50;25.50;20.60;33.50;;;;;;111246;1243;54896;-62
2023/03/31 03:54:42;;;;;;;;;32.50;27.00;20.60;38.60;;;;;;111514;1239;53997;-61
2023/03/31 03:57:09;;;;;;;;;41.67;32.00;20.60;39.50;;;;;;111413;1238;50283;-61
2023/03/31 03:59:35;;;;;;;;;40.67;26.00;20.70;39.80;;;;;;111457;1238;49989;-61
2023/03/31 04:02:03;;;;;;;;;38.00;27.33;20.70;39.80;;;;;;111343;1244;46039;-61
2023/03/31 04:04:29;;;;;;;;;39.75;27.00;20.80;39.80;;;;;;111454;1242;55171;-61
2023/03/31 04:06:56;;;;;;;;;37.25;24.50;20.90;39.60;;;;;;111442;1238;53324;-62
2023/03/31 04:09:23;;;;;;;;;38.33;28.00;21.00;39.60;;;;;;111439;1241;50642;-61
2023/03/31 04:11:50;;;;;;;;;30.25;24.00;21.00;39.50;;;;;;111253;1240;48866;-62
2023/03/31 04:14:18;;;;;;;;;30.25;27.00;21.10;39.50;;;;;;111541;1237;45653;-61
2023/03/31 04:16:45;;;;;;;;;29.50;25.50;21.20;39.60;;;;;;111312;1240;56202;-61
2023/03/31 04:19:16;;;;;;;;;29.75;23.75;21.30;39.30;;;;;;111451;1237;54086;-61
2023/03/31 04:21:57;;;;;;;;;37.50;28.75;21.40;39.30;;;;;;111457;1239;50040;-61
2023/03/31 04:24:29;;;;;;;;;33.00;23.00;21.40;39.20;;;;;;111391;1238;49734;-60
2023/03/31 04:26:56;;;;;;;;;34.25;28.50;21.50;39.10;;;;;;111542;1238;46247;-60
2023/03/31 04:29:25;;;;;;;;;31.25;23.00;21.60;38.90;;;;;;111472;1242;57467;-60
2023/03/31 04:31:57;;;;;;;;;32.00;25.33;21.70;39.00;;;;;;111378;1244;53373;-60
2023/03/31 04:34:33;;;;;;;;;32.25;24.75;21.70;39.10;;;;;;111462;1239;49106;-61
2023/03/31 04:37:01;;;;;;;;;28.00;23.25;21.80;38.90;;;;;;111386;1237;49692;-61
2023/03/31 04:39:29;;;;;;;;;29.67;22.67;21.80;38.90;;;;;;111503;1244;45339;-60
2023/03/31 04:41:57;;;;;;;;;30.25;23.50;21.90;38.90;;;;;;111428;1237;55671;-62
2023/03/31 04:44:24;;;;;;;;;35.50;24.75;21.90;38.80;;;;;;111430;1243;53792;-61
2023/03/31 04:46:52;;;;;;;;;38.75;25.75;22.00;38.80;;;;;;111437;1238;49198;-61
2023/03/31 04:49:19;;;;;;;;;37.00;24.75;22.00;38.50;;;;;;111534;1237;50117;-61
2023/03/31 04:51:47;;;;;;;;;28.50;21.25;22.10;38.60;;;;;;111461;1243;45387;-61
2023/03/31 04:54:14;;;;;;;;;28.75;24.00;22.10;38.50;;;;;;111346;1243;55701;-61
2023/03/31 04:56:41;;;;;;;;;25.50;20.00;22.20;38.50;;;;;;111389;1242;53851;-61
2023/03/31 04:59:08;;;;;;;;;27.00;20.00;22.10;37.90;;;;;;111402;1243;48859;-61
2023/03/31 05:01:35;;;;;;;;;29.50;20.00;22.20;38.60;;;;;;111379;1239;48883;-60
2023/03/31 05:04:03;;;;;;;;;29.67;21.33;22.20;38.30;;;;;;111440;1239;45873;-61
2023/03/31 05:06:31;;;;;;;;;27.33;21.33;22.30;38.40;;;;;;111557;1237;55931;-61
2023/03/31 05:08:58;;;;;;;;;25.75;20.00;22.30;38.20;;;;;;111492;1243;53299;-62
2023/03/31 05:11:26;;;;;;;;;23.00;19.75;22.30;38.40;;;;;;111443;1237;50496;-63
2023/03/31 05:13:53;;;;;;;;;23.25;20.75;22.40;38.20;;;;;;111462;1238;49747;-62
2023/03/31 05:16:20;;;;;;;;;26.50;23.00;22.40;38.10;;;;;;111417;1242;46037;-61
2023/03/31 05:18:47;;;;;;;;;25.75;20.50;22.50;38.10;;;;;;111361;1237;55999;-61
2023/03/31 05:21:17;;;;;;;;;27.67;21.00;22.50;38.10;;;;;;111302;1242;54533;-62
2023/03/31 05:23:45;;;;;;;;;23.00;19.00;22.50;38.00;;;;;;111229;1242;49270;-60
2023/03/31 05:26:12;;;;;;;;;25.50;20.75;22.50;37.90;;;;;;111403;1245;49034;-62
2023/03/31 05:28:40;;;;;;;;;25.00;18.50;22.60;38.00;;;;;;111295;1243;45570;-62
2023/03/31 05:31:08;;;;;;;;;30.00;23.25;22.60;37.90;;;;;;111534;1237;56088;-62
2023/03/31 05:33:39;;;;;;;;;23.00;20.50;22.60;37.90;;;;;;111393;1239;53748;-61
2023/03/31 05:36:14;;;;;;;;;25.33;19.00;22.60;37.80;;;;;;111395;1237;48964;-61
2023/03/31 05:38:42;;;;;;;;;20.50;17.75;22.70;37.90;;;;;;111425;1237;50225;-61
2023/03/31 05:41:09;;;;;;;;;25.75;19.50;22.70;37.90;;;;;;111451;1237;45292;-61
2023/03/31 05:43:38;;;;;;;;;19.00;18.00;22.70;37.80;;;;;;111181;1244;55770;-60
2023/03/31 05:46:05;;;;;;;;;21.25;18.75;22.60;37.70;;;;;;111389;1238;53241;-60
2023/03/31 05:48:32;;;;;;;;;19.50;17.00;22.60;37.90;;;;;;111145;1244;49520;-61
2023/03/31 05:50:59;;;;;;;;;19.25;18.00;22.70;38.00;;;;;;111366;1242;49185;-61
2023/03/31 05:53:27;;;;;;;;;26.00;21.00;22.70;38.20;;;;;;111396;1247;45761;-61
2023/03/31 05:56:01;;;;;;;;;24.67;21.33;22.70;37.70;;;;;;111461;1243;55415;-63
2023/03/31 05:58:29;;;;;;;;;22.00;17.75;22.70;37.20;;;;;;111453;1237;54822;-62
2023/03/31 06:01:04;;;;;;;;;23.00;19.33;22.60;37.50;;;;;;111445;1238;49328;-60
2023/03/31 06:03:33;;;;;;;;;19.25;16.25;22.70;37.60;;;;;;111354;1237;49038;-61
2023/03/31 06:06:00;;;;;;;;;19.00;15.00;22.70;37.60;;;;;;111468;1243;45850;-61
2023/03/31 06:08:28;;;;;;;;;30.00;20.33;22.70;37.60;;;;;;111565;1243;55945;-61
2023/03/31 06:10:56;;;;;;;;;23.00;20.33;22.70;37.50;;;;;;111552;1243;54099;-61
2023/03/31 06:13:23;;;;;;;;;22.50;15.50;22.70;37.50;;;;;;111401;1237;49841;-62
2023/03/31 06:15:58;;;;;;;;;24.00;19.75;22.70;37.50;;;;;;111402;1238;49672;-61
2023/03/31 06:18:30;;;;;;;;;21.25;18.25;22.60;37.30;;;;;;111276;1243;46052;-62
2023/03/31 06:20:57;;;;;;;;;20.67;18.67;22.60;37.30;;;;;;111299;1243;55360;-61
2023/03/31 06:23:25;;;;;;;;;20.00;18.00;22.60;37.30;;;;;;111448;1242;53451;-61
2023/03/31 06:25:52;;;;;;;;;24.50;21.50;22.60;37.30;;;;;;111433;1244;49707;-61
2023/03/31 06:28:20;;;;;;;;;20.25;17.50;22.60;37.30;;;;;;111481;1237;49926;-62
2023/03/31 06:30:47;;;;;;;;;21.00;16.00;22.60;37.30;;;;;;111453;1238;46106;-61
2023/03/31 06:33:15;;;;;;;;;16.75;15.50;22.50;37.10;;;;;;111573;1242;55341;-61
2023/03/31 06:35:42;;;;;;;;;28.00;22.00;22.50;37.10;;;;;;111412;1243;53235;-61
2023/03/31 06:38:09;;;;;;;;;19.75;14.00;22.50;37.30;;;;;;111488;1238;49751;-62
2023/03/31 06:40:36;;;;;;;;;19.75;16.75;22.50;37.20;;;;;;111510;1238;49315;-61
2023/03/31 06:43:03;;;;;;;;;25.00;20.75;22.50;37.20;;;;;;111459;1238;46334;-62
2023/03/31 06:45:29;;;;;;;;;20.67;16.33;22.50;37.10;;;;;;111505;1237;55440;-61
2023/03/31 06:47:56;;;;;;;;;23.75;20.00;22.50;37.30;;;;;;111403;1243;53578;-61
2023/03/31 06:50:23;;;;;;;;;20.00;16.75;22.50;37.20;;;;;;111439;1237;50305;-61
2023/03/31 06:52:53;;;;;;;;;21.50;17.00;22.50;37.30;;;;;;111417;1237;50325;-60
2023/03/31 06:55:20;;;;;;;;;17.25;14.75;22.50;37.30;;;;;;111382;1238;45920;-62
2023/03/31 06:57:47;;;;;;;;;18.00;15.00;22.50;37.20;;;;;;111171;1244;55611;-61
2023/03/31 07:00:15;;;;;;;;;22.00;17.00;22.50;37.20;;;;;;111393;1238;53840;-60
2023/03/31 07:02:42;;;;;;;;;22.25;17.50;22.60;37.30;;;;;;111416;1238;49378;-60
2023/03/31 07:05:09;;;;;;;;;20.00;18.75;22.60;37.30;;;;;;111444;1243;49527;-61
2023/03/31 07:07:36;;;;;;;;;22.75;15.50;22.70;37.20;;;;;;111428;1241;45836;-61
2023/03/31 07:10:04;;;;;;;;;20.25;16.75;22.70;37.30;;;;;;111437;1242;55731;-61
2023/03/31 07:12:34;;;;;;;;;18.00;15.00;22.70;37.20;;;;;;111498;1243;54996;-62
2023/03/31 07:15:01;;;;;;;;;19.00;17.00;22.70;37.40;;;;;;111476;1242;50313;-60
2023/03/31 07:17:29;;;;;;;;;21.75;17.00;22.80;37.20;;;;;;111324;1243;50540;-60
2023/03/31 07:19:56;;;;;;;;;18.00;15.00;22.80;37.20;;;;;;111438;1237;45161;-62
2023/03/31 07:22:23;;;;;;;;;18.00;17.00;22.80;37.80;;;;;;110916;1238;711780;-60
2023/03/31 07:24:50;;;;;;;;;22.50;17.50;22.90;38.10;;;;;;111469;1238;54199;-62
2023/03/31 07:27:17;;;;;;;;;23.75;21.00;22.90;37.90;;;;;;111400;1243;49565;-63
2023/03/31 07:29:44;;;;;;;;;16.75;14.00;23.00;39.80;;;;;;111463;1241;50680;-63
2023/03/31 07:32:11;;;;;;;;;21.25;18.50;23.00;39.20;;;;;;111360;1240;45754;-59
2023/03/31 07:34:40;;;;;;;;;21.25;19.75;23.10;39.00;;;;;;111456;1237;56038;-63
2023/03/31 07:37:07;;;;;;;;;20.50;17.75;23.10;39.10;;;;;;111438;1237;53966;-62
2023/03/31 07:39:35;;;;;;;;;22.00;18.67;23.20;39.50;;;;;;111457;1237;49443;-63
2023/03/31 07:42:02;;;;;;;;;16.75;14.25;23.20;39.30;;;;;;111595;1238;49241;-64
2023/03/31 07:44:32;;;;;;;;;18.00;15.00;23.20;39.40;;;;;;111455;1243;45586;-62
2023/03/31 07:47:03;;;;;;;;;19.00;16.00;23.30;39.30;;;;;;111566;1242;56101;-65
2023/03/31 07:49:31;;;;;;;;;20.50;18.00;23.30;39.40;;;;;;111561;1243;53789;-64
2023/03/31 07:51:58;;;;;;;;;19.75;18.75;23.30;39.20;;;;;;111501;1240;49756;-63
2023/03/31 07:54:25;;;;;;;;;19.25;16.75;23.40;39.60;;;;;;111401;1242;49307;-61
2023/03/31 07:56:53;;;;;;;;;19.00;15.75;23.40;39.20;;;;;;111450;1242;45438;-61
2023/03/31 07:59:20;;;;;;;;;21.75;16.50;23.40;39.00;;;;;;111418;1237;55936;-60
2023/03/31 08:01:47;;;;;;;;;19.00;17.00;23.40;38.70;;;;;;111509;1237;54451;-60
2023/03/31 08:04:14;;;;;;;;;17.33;14.33;23.40;38.70;;;;;;111443;1242;50034;-63
2023/03/31 08:06:41;;;;;;;;;17.25;16.25;23.50;38.50;;;;;;111414;1237;49617;-64
2023/03/31 08:09:08;;;;;;;;;17.75;14.75;23.50;38.40;;;;;;111492;1239;45635;-65
2023/03/31 08:11:35;;;;;;;;;20.25;16.50;23.60;37.90;;;;;;111422;1238;56176;-64
2023/03/31 08:14:02;;;;;;;;;18.50;15.00;23.50;37.50;;;;;;111523;1243;54186;-62
2023/03/31 08:16:29;;;;;;;;;20.50;16.75;23.50;37.30;;;;;;111374;1240;49324;-64
2023/03/31 08:18:56;;;;;;;;;23.25;17.25;23.50;37.60;;;;;;111435;1242;50269;-62
2023/03/31 08:21:23;;;;;;;;;29.25;22.75;23.50;37.60;;;;;;111433;1242;45993;-62
2023/03/31 08:23:53;;;;;;;;;28.25;23.00;23.50;41.10;;;;;;111589;1243;55598;-60
2023/03/31 08:26:23;;;;;;;;;37.75;28.75;23.50;41.90;;;;;;111603;1237;54436;-64
2023/03/31 08:28:51;;;;;;;;;32.75;26.75;23.60;42.10;;;;;;111572;1243;50104;-65
2023/03/31 08:31:19;;;;;;;;;30.33;24.33;23.60;41.90;;;;;;111567;1243;49153;-64
2023/03/31 08:33:46;;;;;;;;;37.67;29.00;23.60;41.40;;;;;;111484;1246;46763;-64
2023/03/31 08:36:13;;;;;;;;;31.75;28.00;23.60;41.00;;;;;;111466;1243;55529;-64
2023/03/31 08:38:44;;;;;;;;;25.33;19.67;23.60;40.70;;;;;;111517;1237;53833;-64
2023/03/31 08:41:31;;;;;;;;;25.25;21.75;23.60;40.50;;;;;;111554;1237;48951;-63
2023/03/31 08:44:01;;;;;;;;;26.25;22.50;23.60;40.20;;;;;;111538;1237;49234;-64
2023/03/31 08:46:32;;;;;;;;;27.00;23.00;23.60;40.00;;;;;;111534;1237;45709;-63
2023/03/31 08:49:00;;;;;;;;;27.75;24.50;23.60;39.80;;;;;;111293;1241;57161;-64
2023/03/31 08:51:30;;;;;;;;;32.00;26.67;23.60;39.80;;;;;;111304;1239;54348;-64
2023/03/31 08:54:02;;;;;;;;;26.50;18.75;23.60;39.70;;;;;;111496;1238;49111;-65
2023/03/31 08:56:37;;;;;;;;;26.00;22.00;23.60;39.60;;;;;;111407;1238;50172;-63
2023/03/31 08:59:06;;;;;;;;;30.33;22.00;23.60;39.50;;;;;;111421;1238;46050;-65
2023/03/31 09:01:49;;;;;;;;;30.25;23.75;23.50;39.30;;;;;;111478;1237;55096;-63
2023/03/31 09:04:22;;;;;;;;;27.33;20.00;23.50;39.40;;;;;;111350;1240;53305;-64
2023/03/31 09:07:01;;;;;;;;;23.50;21.50;23.50;39.50;;;;;;111408;1239;50764;-64
2023/03/31 09:09:43;;;;;;;;;25.75;20.75;23.50;39.80;;;;;;111423;1243;49457;-63
2023/03/31 09:12:25;;;;;;;;;21.00;19.25;23.50;39.20;;;;;;111459;1244;45713;-63
2023/03/31 09:15:09;;;;;;;;;27.00;23.75;23.60;39.30;;;;;;111423;1242;55275;-65
2023/03/31 09:17:42;;;;;;;;;25.75;20.00;23.60;39.20;;;;;;111449;1243;53275;-64
2023/03/31 09:20:22;;;;;;;;;28.33;21.00;23.50;39.00;;;;;;111486;1242;49580;-64
2023/03/31 09:22:57;;;;;;;;;26.00;22.25;23.50;38.90;;;;;;111459;1238;50536;-65
2023/03/31 09:25:31;;;;;;;;;33.00;25.00;23.50;38.90;;;;;;111432;1237;46183;-66
2023/03/31 09:27:58;;;;;;;;;26.50;24.00;23.50;38.90;;;;;;111460;1242;56719;-65
2023/03/31 09:30:28;;;;;;;;;21.75;17.00;23.50;38.90;;;;;;111432;1243;54232;-64
2023/03/31 09:33:19;;;;;;;;;25.75;18.00;23.40;39.10;;;;;;111476;1243;49775;-65
2023/03/31 09:35:46;;;;;;;;;24.00;18.00;23.40;38.90;;;;;;111509;1242;50007;-64
2023/03/31 09:38:15;;;;;;;;;23.67;19.33;23.40;38.90;;;;;;111475;1238;45294;-64
2023/03/31 09:40:42;;;;;;;;;21.00;18.00;23.40;38.80;;;;;;111432;1243;56302;-63
2023/03/31 09:43:22;;;;;;;;;25.50;19.75;23.40;38.60;;;;;;111377;1239;54637;-64
2023/03/31 09:45:50;;;;;;;;;19.25;18.00;23.30;38.80;;;;;;111435;1238;49643;-64
2023/03/31 09:48:20;;;;;;;;;23.75;19.00;23.30;38.70;;;;;;111407;1243;49016;-64
2023/03/31 09:50:59;;;;;;;;;25.00;22.00;23.30;38.60;;;;;;111400;1242;45966;-64
2023/03/31 09:53:50;;;;;;;;;22.50;17.75;23.30;38.80;;;;;;111316;1242;55301;-64
2023/03/31 09:56:42;;;;;;;;;22.00;19.00;23.30;38.60;;;;;;111245;1243;54835;-63
2023/03/31 09:59:18;;;;;;;;;29.75;21.75;23.40;38.70;;;;;;111452;1244;49498;-63
2023/03/31 10:01:47;;;;;;;;;26.50;21.00;23.40;39.70;;;;;;111511;1237;49493;-64
2023/03/31 10:04:21;;;;;;;;;19.00;18.00;23.40;38.80;;;;;;111334;1243;45642;-65
2023/03/31 10:06:51;;;;;;;;;19.50;16.75;23.40;39.00;;;;;;111399;1237;55112;-65
2023/03/31 10:09:26;;;;;;;;;20.25;17.00;23.40;38.70;;;;;;111551;1243;53638;-62
2023/03/31 10:12:04;;;;;;;;;18.00;16.00;23.50;39.50;;;;;;111517;1242;50602;-63
2023/03/31 10:14:51;;;;;;;;;23.67;19.00;23.50;39.50;;;;;;111325;1239;49239;-63
2023/03/31 10:17:21;;;;;;;;;21.75;18.00;23.50;39.40;;;;;;111349;1242;45266;-63
2023/03/31 10:19:59;;;;;;;;;19.50;17.25;23.50;39.00;;;;;;111254;1242;56605;-63
2023/03/31 10:22:29;;;;;;;;;18.67;17.67;23.60;38.90;;;;;;111478;1238;53681;-62
2023/03/31 10:25:16;;;;;;;;;22.25;18.25;23.60;38.80;;;;;;111432;1238;49847;-62
2023/03/31 10:27:47;;;;;;;;;20.75;19.00;23.60;38.70;;;;;;111455;1238;49158;-61
2023/03/31 10:30:21;;;;;;;;;22.25;18.75;23.60;38.70;;;;;;111244;1240;45198;-65
2023/03/31 10:32:48;;;;;;;;;19.00;16.00;23.60;38.80;;;;;;111448;1238;56079;-64
2023/03/31 10:35:21;;;;;;;;;20.75;18.25;23.70;38.60;;;;;;111341;1242;54165;-62
2023/03/31 10:37:50;;;;;;;;;19.75;16.50;23.70;38.60;;;;;;111505;1237;50752;-61
2023/03/31 10:40:24;;;;;;;;;18.25;17.00;23.70;38.50;;;;;;111522;1243;49285;-66
2023/03/31 10:43:03;;;;;;;;;21.25;19.00;23.80;38.80;;;;;;111537;1239;46003;-64
2023/03/31 10:45:36;;;;;;;;;18.00;16.00;23.80;38.40;;;;;;111408;1242;55719;-61
2023/03/31 10:48:04;;;;;;;;;24.00;19.00;23.80;38.40;;;;;;111500;1243;54130;-63
2023/03/31 10:50:34;;;;;;;;;19.25;17.00;23.80;38.40;;;;;;111437;1238;49644;-63
2023/03/31 10:53:04;;;;;;;;;23.00;19.00;23.80;38.60;;;;;;111494;1237;49537;-63
2023/03/31 10:55:35;;;;;;;;;20.75;19.00;23.80;38.40;;;;;;111471;1243;45468;-63
2023/03/31 10:58:13;;;;;;;;;23.33;18.33;23.90;38.10;;;;;;111384;1238;55523;-63
2023/03/31 11:01:12;;;;;;;;;19.75;16.50;23.90;37.90;;;;;;111467;1237;54173;-64
2023/03/31 11:03:38;;;;;;;;;24.00;18.00;23.90;37.90;;;;;;111224;1244;49211;-63
2023/03/31 11:06:27;;;;;;;;;24.75;20.50;24.00;39.10;;;;;;111388;1238;50072;-62
2023/03/31 11:09:09;;;;;;;;;22.00;18.50;23.90;38.90;;;;;;111505;1242;45964;-63
2023/03/31 11:12:17;;;;;;;;;20.00;17.00;24.00;38.80;;;;;;111453;1238;55308;-64
2023/03/31 11:14:44;;;;;;;;;17.75;16.00;24.00;38.80;;;;;;111304;1243;54052;-66
2023/03/31 11:17:24;;;;;;;;;20.00;17.75;24.00;38.70;;;;;;111375;1237;50141;-64
2023/03/31 11:20:07;;;;;;;;;25.00;19.75;24.10;38.60;;;;;;111377;1244;50180;-66
2023/03/31 11:22:54;;;;;;;;;18.25;16.00;24.10;38.40;;;;;;111440;1237;45987;-66
2023/03/31 11:25:22;;;;;;;;;20.00;18.00;24.10;38.20;;;;;;111290;1242;55537;-61
2023/03/31 11:28:00;;;;;;;;;22.00;18.50;24.20;38.00;;;;;;111408;1238;53323;-61
2023/03/31 11:30:28;;;;;;;;;22.75;19.00;24.30;38.00;;;;;;111376;1237;50535;-62
2023/03/31 11:33:22;;;;;;;;;23.25;17.75;24.30;37.80;;;;;;111416;1242;48861;-64
2023/03/31 11:36:05;;;;;;;;;19.25;16.75;24.30;37.80;;;;;;111485;1242;46589;-62
2023/03/31 11:38:44;;;;;;;;;18.33;17.00;24.30;37.70;;;;;;111480;1243;55519;-64
2023/03/31 11:41:27;;;;;;;;;20.50;16.00;24.30;37.70;;;;;;111401;1241;54733;-66
2023/03/31 11:44:02;;;;;;;;;22.00;18.25;24.40;37.80;;;;;;111560;1242;49031;-68
2023/03/31 11:46:38;;;;;;;;;17.75;15.00;24.30;37.50;;;;;;111455;1241;49611;-65
2023/03/31 11:49:30;;;;;;;;;16.33;15.33;24.40;37.60;;;;;;111396;1239;45738;-67
2023/03/31 11:52:15;;;;;;;;;22.00;18.00;24.40;37.60;;;;;;111437;1240;55396;-64
2023/03/31 11:55:14;;;;;;;;;20.00;17.33;24.40;37.70;;;;;;111439;1240;53843;-63
2023/03/31 11:57:49;;;;;;;;;18.33;16.00;24.40;37.80;;;;;;111429;1237;49212;-65
2023/03/31 12:00:22;;;;;;;;;21.33;19.00;24.40;38.00;;;;;;111299;1243;50339;-61
2023/03/31 12:02:51;;;;;;;;;17.00;16.00;24.30;37.40;;;;;;111284;1239;46160;-64
2023/03/31 12:05:21;;;;;;;;;18.00;17.00;24.30;37.90;;;;;;111449;1242;54979;-64
2023/03/31 12:08:05;;;;;;;;;20.00;14.00;24.30;38.00;;;;;;111447;1238;54164;-64
2023/03/31 12:10:36;;;;;;;;;18.00;16.00;24.40;37.80;;;;;;111418;1237;50161;-63
2023/03/31 12:13:25;;;;;;;;;22.50;19.00;24.40;37.50;;;;;;111407;1238;49427;-63
2023/03/31 12:16:04;;;;;;;;;17.50;16.50;24.40;37.30;;;;;;111544;1242;45678;-64
2023/03/31 12:18:37;;;;;;;;;20.00;16.75;24.50;37.50;;;;;;111519;1238;55137;-65
2023/03/31 12:21:05;;;;;;;;;25.75;18.50;24.50;37.20;;;;;;111441;1237;54971;-64
2023/03/31 12:23:39;;;;;;;;;19.50;18.50;24.50;37.50;;;;;;111245;1238;49084;-67
2023/03/31 12:26:12;;;;;;;;;13.33;12.33;24.50;37.40;;;;;;111359;1238;49151;-62
2023/03/31 12:28:41;;;;;;;;;19.00;15.50;24.50;37.90;;;;;;111507;1238;45873;-61
2023/03/31 12:31:16;;;;;;;;;19.50;17.00;24.60;37.90;;;;;;111558;1238;56550;-61
2023/03/31 12:33:48;;;;;;;;;15.75;14.75;24.60;37.40;;;;;;111481;1238;53861;-65
2023/03/31 12:36:44;;;;;;;;;20.00;17.25;24.60;37.00;;;;;;111300;1238;49686;-61
2023/03/31 12:39:18;;;;;;;;;16.33;15.33;24.60;36.90;;;;;;111373;1237;49347;-63
2023/03/31 12:42:06;;;;;;;;;19.33;16.33;24.60;36.70;;;;;;111396;1238;45425;-62
2023/03/31 12:44:53;;;;;;;;;16.00;15.00;24.60;36.70;;;;;;111383;1237;56091;-62